Search for airport 
image banner adimage banner adimage banner ad
image banner ad

BIKF - Keflavik

Located in Keflavik, Iceland

ICAO - BIKF, IATA - KEF

Data provided by Airmate  

General information

Coordinates: N63°59'6" W22°36'20"
Elevation is 169 feet MSL.
 
View others Airports in Southern Peninsula

Operational data

Special qualification required
Current time UTC:
Current local time:
Weather
METAR: BIKF 082300Z 06008KT 9999 FEW030 03/M03 Q1013
TAF: TAF BIKF 081938Z 0821/0921 02011KT 9999 FEW028 SCT036 TX08/0916Z TNM00/0904Z TEMPO 0912/0921 04018G28KT
View NOTAMs / SUP AIP / TFR affecting this airport [VIEW]
Communications frequencies: [VIEW]

Runways:

RWY identifierQFULength (ft)Width (ft)SurfaceLDA (ft)
0110020197ASPH
19180°10020197ASPH
1090°10056197ASPH
28270°10056197ASPH

Airport contact information

Address: Keflavik Iceland

Satellite view of BIKF